Time;durP1;ratioP1;P1;durP2;ratioP2;P2;SDS_P1;SDS_P2;PMS_P1;PMS_P2;Temp;Humidity;BMP_temperature;BMP_pressure;BME280_temperature;BME280_humidity;BME280_pressure;Samples;Min_cycle;Max_cycle;Signal;HPM_P1;HPM_P2
2022/08/12 00:43:35;;;;;;;4.33;4.03;;;18.30;48.90;;;18.31;47.33;98230.88;5016392;28;20531;-70
2022/08/12 00:48:49;;;;;;;4.73;3.83;;;18.20;48.80;;;18.35;47.36;98237.44;5010068;28;20918;-70
2022/08/12 00:51:20;;;;;;;7.43;3.40;;;18.20;48.90;;;18.24;47.63;98237.38;5025898;28;20451;-70
2022/08/12 00:53:47;;;;;;;3.83;3.37;;;18.20;48.90;;;18.26;47.45;98232.47;5010480;28;20506;-70
2022/08/12 00:56:15;;;;;;;3.80;3.50;;;18.20;48.90;;;18.34;47.28;98235.81;5024562;28;20516;-71
2022/08/12 00:58:49;;;;;;;4.30;3.70;;;18.20;48.90;;;18.22;47.66;98230.53;5029785;28;20512;-70
2022/08/12 01:01:18;;;;;;;3.90;3.60;;;18.10;49.00;;;18.04;47.96;98221.63;5030923;28;20584;-70
2022/08/12 01:12:13;;;;;;;4.03;3.73;;;17.70;49.30;;;17.83;48.79;98229.59;4989884;28;21023;-71
2022/08/12 01:14:41;;;;;;;3.93;3.50;;;17.70;49.50;;;17.72;48.80;98219.66;5024114;28;20459;-71
2022/08/12 01:17:08;;;;;;;4.00;3.60;;;17.60;49.50;;;17.75;48.87;98235.53;5022938;28;20555;-69
2022/08/12 01:19:36;;;;;;;3.90;3.50;;;17.70;49.50;;;17.74;48.90;98233.88;5044133;28;20513;-70
2022/08/12 01:22:24;;;;;;;5.17;3.70;;;17.60;49.50;;;17.65;48.93;98224.47;5028190;28;20597;-68
2022/08/12 01:25:07;;;;;;;3.80;3.50;;;17.60;49.50;;;17.65;49.05;98229.94;5028569;28;20545;-69
2022/08/12 01:27:40;;;;;;;4.13;3.80;;;17.60;49.60;;;17.60;49.16;98232.63;5030159;28;20458;-69
2022/08/12 01:30:13;;;;;;;3.77;3.47;;;17.50;49.60;;;17.68;48.96;98230.25;5028237;28;20810;-69
2022/08/12 01:32:41;;;;;;;3.60;3.30;;;17.50;49.70;;;17.64;48.99;98228.28;5047063;28;20580;-69
2022/08/12 01:35:11;;;;;;;5.70;3.40;;;17.50;49.70;;;17.59;49.10;98230.97;5048320;28;20504;-69
2022/08/12 01:37:47;;;;;;;3.87;3.50;;;17.50;49.70;;;17.52;49.19;98232.00;5049961;28;20457;-69
2022/08/12 01:40:16;;;;;;;7.90;4.17;;;17.40;49.70;;;17.42;49.44;98237.34;5032311;28;21017;-69
2022/08/12 01:42:48;;;;;;;7.27;3.60;;;17.40;49.80;;;17.41;49.58;98228.31;5029155;28;20453;-70
2022/08/12 01:45:23;;;;;;;4.90;3.70;;;17.40;49.80;;;17.38;49.51;98228.03;5028127;28;20454;-69
2022/08/12 01:48:13;;;;;;;3.90;3.60;;;17.40;49.80;;;17.41;49.65;98224.78;5030400;28;20508;-69
2022/08/12 01:50:58;;;;;;;4.10;3.80;;;17.30;49.80;;;17.43;49.70;98222.63;5018532;28;20842;-69
2022/08/12 01:53:33;;;;;;;4.30;3.90;;;17.30;49.90;;;17.39;49.70;98216.00;5008720;28;20455;-68
2022/08/12 01:56:04;;;;;;;4.73;4.33;;;17.30;50.00;;;17.35;50.01;98220.31;5021046;28;20457;-69
2022/08/12 01:59:45;;;;;;;3.83;3.57;;;17.30;50.10;;;17.34;49.84;98215.94;5044187;28;20446;-69
2022/08/12 02:01:31;;;;;;;4.03;3.60;;;17.20;50.10;;;17.32;50.01;98220.84;5026995;28;20466;-69
2022/08/12 02:13:03;;;;;;;4.50;3.20;;;17.10;50.20;;;17.19;50.28;98201.03;5040011;28;20952;-69
2022/08/12 02:15:44;;;;;;;4.23;3.43;;;17.10;50.20;;;17.19;50.00;98206.47;5026707;28;21005;-69
2022/08/12 02:18:25;;;;;;;4.80;3.57;;;17.10;50.20;;;17.12;50.01;98206.66;5028017;28;20450;-69
2022/08/12 02:21:04;;;;;;;4.87;3.53;;;17.10;50.10;;;17.15;50.14;98199.88;5026842;28;21096;-69
2022/08/12 02:23:33;;;;;;;3.63;3.30;;;17.10;50.10;;;17.21;50.22;98198.88;5043489;28;20538;-70
2022/08/12 02:26:07;;;;;;;3.93;3.53;;;17.10;50.20;;;17.11;50.11;98204.22;5027457;28;20520;-70
2022/08/12 02:28:37;;;;;;;4.03;3.20;;;17.10;50.20;;;17.05;50.26;98194.28;5042809;28;20451;-70
2022/08/12 02:31:09;;;;;;;3.80;3.23;;;17.10;50.30;;;17.12;50.38;98195.75;5029396;28;20453;-69
2022/08/12 02:33:37;;;;;;;4.47;4.00;;;17.10;50.30;;;17.19;50.36;98201.03;5043277;28;20938;-70
2022/08/12 02:36:05;;;;;;;4.17;3.77;;;17.10;50.30;;;17.08;50.23;98194.63;5043274;28;20455;-70
2022/08/12 02:38:33;;;;;;;4.20;3.90;;;17.10;50.30;;;17.13;50.35;98191.94;5027812;28;20451;-69
2022/08/12 02:41:05;;;;;;;3.80;3.20;;;17.10;50.40;;;17.02;50.47;98192.06;5028811;28;20880;-68
2022/08/12 02:43:41;;;;;;;6.53;4.07;;;17.00;50.30;;;17.01;50.76;98196.72;5025708;28;20454;-69
2022/08/12 02:46:12;;;;;;;3.77;3.43;;;16.90;50.60;;;16.93;50.90;98192.50;5027673;28;20450;-69
2022/08/12 02:48:51;;;;;;;4.00;3.70;;;16.90;50.70;;;16.87;50.72;98196.22;5043261;28;20638;-69
2022/08/12 02:51:22;;;;;;;3.70;3.40;;;16.90;50.60;;;16.81;51.07;98189.88;5028746;28;20469;-70
2022/08/12 02:53:50;;;;;;;4.20;3.90;;;16.80;50.80;;;16.79;51.56;98191.22;5027961;28;20454;-69
2022/08/12 02:56:18;;;;;;;3.60;3.30;;;16.70;50.90;;;16.74;51.57;98188.41;5042767;28;20509;-69
2022/08/12 02:58:47;;;;;;;3.60;3.27;;;16.70;50.90;;;16.67;52.03;98183.97;5028000;28;20485;-69
2022/08/12 03:01:17;;;;;;;3.50;3.27;;;16.60;51.10;;;16.60;51.60;98185.22;5024912;28;20483;-69
2022/08/12 03:03:51;;;;;;;3.70;3.50;;;16.50;51.50;;;16.52;52.48;98183.75;5007586;28;20505;-69
2022/08/12 03:06:22;;;;;;;4.60;4.10;;;16.50;51.40;;;16.55;52.21;98180.50;5032053;28;20488;-70
2022/08/12 03:08:56;;;;;;;4.53;4.17;;;16.40;51.40;;;16.47;52.48;98186.41;5040992;28;20465;-69
2022/08/12 03:11:29;;;;;;;3.80;3.40;;;16.30;51.50;;;16.19;53.17;98188.16;5027104;28;20557;-69
2022/08/12 03:14:02;;;;;;;5.20;3.90;;;16.10;51.70;;;15.72;53.51;98147.28;5026836;28;20764;-69
2022/08/12 03:16:31;;;;;;;4.50;4.10;;;16.00;52.00;;;16.13;53.49;98184.50;5043370;28;20829;-71
2022/08/12 03:18:59;;;;;;;3.50;3.30;;;16.00;52.20;;;15.91;54.22;98195.31;5027504;28;20538;-70
2022/08/12 03:21:26;;;;;;;5.20;3.90;;;15.90;52.30;;;15.88;54.00;98190.34;5026237;28;20466;-69
2022/08/12 03:23:56;;;;;;;4.60;4.20;;;15.80;52.50;;;15.83;54.23;98200.03;5043446;28;20511;-70
2022/08/12 03:26:24;;;;;;;4.50;3.60;;;15.70;52.60;;;15.75;54.43;98192.28;5027545;28;20474;-70
2022/08/12 03:28:55;;;;;;;5.43;3.70;;;15.70;52.90;;;15.70;54.65;98184.84;5027048;28;20643;-70
2022/08/12 03:31:28;;;;;;;4.43;4.07;;;15.60;53.00;;;15.65;55.22;98178.47;5028751;28;20454;-70
2022/08/12 03:34:00;;;;;;;4.90;4.50;;;15.50;53.10;;;15.60;55.15;98183.84;5029155;28;20476;-70
2022/08/12 03:36:30;;;;;;;4.60;4.30;;;15.50;53.20;;;15.56;55.05;98180.78;5030922;28;20536;-68
2022/08/12 03:39:19;;;;;;;4.53;3.93;;;15.50;53.30;;;15.61;54.89;98186.31;5046293;28;21060;-69
2022/08/12 03:41:54;;;;;;;7.17;3.90;;;15.50;53.30;;;15.57;55.31;98194.16;5032258;28;21321;-69
2022/08/12 04:01:07;;;;;;;5.60;4.60;;;15.20;54.30;;;15.16;56.91;98198.78;5012243;28;20606;-68
2022/08/12 04:03:52;;;;;;;4.50;4.13;;;15.00;54.50;;;15.21;56.35;98201.63;5010490;28;20450;-69
2022/08/12 04:06:20;;;;;;;4.63;4.13;;;15.10;54.70;;;15.21;56.83;98201.63;5042705;28;20456;-69
2022/08/12 04:08:49;;;;;;;5.07;4.30;;;15.20;54.90;;;15.29;56.25;98198.53;5049043;28;20531;-68
2022/08/12 04:14:10;;;;;;;3.90;3.60;;;15.20;54.80;;;15.07;56.53;98184.75;5025836;28;20454;-68
2022/08/12 04:16:38;;;;;;;5.83;4.30;;;15.20;54.80;;;15.32;56.19;98204.53;5034730;28;20538;-69
2022/08/12 04:19:08;;;;;;;4.30;3.97;;;15.20;54.80;;;15.38;55.93;98200.84;5030315;28;20445;-69
2022/08/12 04:21:36;;;;;;;4.27;3.87;;;15.30;54.80;;;15.43;56.03;98207.22;5011033;28;20478;-69
2022/08/12 04:24:05;;;;;;;4.73;4.33;;;15.40;54.70;;;15.50;55.76;98203.53;5009473;28;20455;-70
2022/08/12 04:26:34;;;;;;;4.73;3.57;;;15.50;54.50;;;15.44;55.48;98199.91;5027609;28;20465;-69
2022/08/12 04:29:02;;;;;;;4.80;4.40;;;15.50;54.40;;;15.56;55.30;98214.28;5030538;28;20453;-68
2022/08/12 04:31:34;;;;;;;4.23;3.80;;;15.50;54.40;;;16.14;54.21;98206.06;5046194;28;21055;-69
2022/08/12 04:34:02;;;;;;;4.40;3.93;;;16.00;54.20;;;16.67;52.37;98211.22;5045353;28;20572;-69
2022/08/12 04:36:31;;;;;;;4.47;4.00;;;16.70;53.40;;;17.21;50.76;98204.34;5030741;28;20945;-69
2022/08/12 04:38:59;;;;;;;4.70;3.80;;;17.30;52.20;;;17.82;49.10;98203.38;5029825;28;20945;-70
2022/08/12 04:41:27;;;;;;;4.53;4.13;;;17.90;51.50;;;18.12;48.36;98199.28;5046151;28;20473;-70
2022/08/12 04:43:56;;;;;;;4.57;3.50;;;18.40;51.00;;;18.56;46.90;98200.13;5044151;28;20546;-70
2022/08/12 04:46:23;;;;;;;4.30;3.90;;;18.80;50.10;;;18.73;46.80;98205.44;5029905;28;20453;-70
2022/08/12 04:48:51;;;;;;;4.67;3.73;;;18.90;49.80;;;18.56;47.04;98194.66;5029308;28;20462;-69
2022/08/12 04:51:20;;;;;;;4.33;4.03;;;19.00;49.60;;;18.84;46.14;98206.34;5017081;28;20855;-70
2022/08/12 04:53:49;;;;;;;6.33;3.60;;;19.30;49.20;;;19.45;44.83;98209.66;5024257;28;20456;-70
2022/08/12 04:56:17;;;;;;;4.20;3.90;;;19.70;49.00;;;19.61;44.56;98208.59;5024339;28;20458;-70
2022/08/12 04:58:45;;;;;;;6.57;4.40;;;20.00;48.60;;;19.91;43.68;98206.19;5028156;28;20538;-70
2022/08/12 05:01:13;;;;;;;6.10;3.50;;;20.30;48.00;;;19.87;43.63;98210.56;5028696;28;20860;-70
2022/08/12 05:03:40;;;;;;;3.90;3.60;;;20.60;47.60;;;20.32;42.61;98203.50;5029286;28;20462;-70
2022/08/12 05:06:09;;;;;;;4.43;4.03;;;20.90;47.50;;;19.99;43.63;98205.69;5037566;28;20897;-70
2022/08/12 05:08:36;;;;;;;3.77;3.57;;;20.60;47.30;;;20.16;42.99;98201.84;5044476;28;20482;-70
2022/08/12 05:11:06;;;;;;;3.90;3.60;;;20.80;47.10;;;20.02;43.11;98202.38;5031097;28;20538;-70
2022/08/12 05:13:37;;;;;;;3.87;3.47;;;20.90;47.10;;;20.05;43.28;98215.53;5037879;28;20514;-69
2022/08/12 05:16:07;;;;;;;3.90;3.60;;;20.70;47.20;;;20.14;42.96;98212.28;5025431;28;20926;-69
2022/08/12 05:18:36;;;;;;;3.77;3.47;;;20.80;47.00;;;20.91;41.83;98205.88;5047647;28;20824;-70
2022/08/12 05:21:06;;;;;;;4.43;4.03;;;21.30;47.10;;;21.45;40.50;98215.28;5056532;28;20485;-70
2022/08/12 05:23:36;;;;;;;4.33;3.93;;;21.60;46.70;;;21.29;41.55;98216.47;5028796;28;20546;-69
2022/08/12 05:26:05;;;;;;;3.73;3.43;;;21.90;46.60;;;21.22;40.67;98214.03;5028049;28;20524;-70
2022/08/12 05:28:33;;;;;;;4.43;4.03;;;22.10;46.10;;;21.69;39.88;98222.91;5023670;28;20459;-69
2022/08/12 05:31:01;;;;;;;5.10;3.30;;;22.20;45.90;;;22.08;39.03;98211.09;5010346;28;20449;-71
2022/08/12 05:33:36;;;;;;;3.60;3.30;;;22.60;45.70;;;21.98;39.32;98210.34;5008909;28;20562;-71
2022/08/12 05:36:07;;;;;;;5.50;3.90;;;22.60;45.40;;;21.73;39.82;98215.72;5024732;28;20460;-69
2022/08/12 05:41:23;;;;;;;3.67;3.37;;;22.80;45.80;;;22.35;38.45;98220.78;5025441;28;20444;-70
2022/08/12 05:43:52;;;;;;;4.07;3.60;;;23.00;45.30;;;21.74;39.68;98213.81;5006949;28;20871;-71
2022/08/12 05:46:19;;;;;;;4.67;3.50;;;22.80;45.10;;;;;;5024927;28;20527;-70
2022/08/12 05:48:48;;;;;;;3.70;3.40;;;22.60;45.30;;;21.81;39.81;98222.56;5024039;28;20824;-70
2022/08/12 05:51:15;;;;;;;3.97;3.43;;;22.70;45.40;;;22.01;39.33;98234.53;5027787;28;20469;-70
2022/08/12 05:53:43;;;;;;;3.63;3.33;;;22.70;45.20;;;21.72;39.92;98230.56;5043391;28;20472;-70
2022/08/12 05:56:22;;;;;;;4.50;3.50;;;22.50;45.50;;;21.82;39.36;98232.44;5027824;28;20458;-69
2022/08/12 05:58:51;;;;;;;3.83;3.40;;;22.60;45.30;;;21.62;39.91;98230.63;5044314;28;20558;-68
2022/08/12 06:01:18;;;;;;;3.50;3.20;;;22.60;45.20;;;22.17;39.04;98238.81;5049153;28;20539;-69
2022/08/12 06:03:46;;;;;;;3.73;3.43;;;22.60;45.30;;;20.96;41.48;98241.59;5047539;28;20526;-70
2022/08/12 06:06:15;;;;;;;3.37;3.07;;;22.00;45.50;;;19.97;43.57;98243.53;5035336;28;20853;-70
2022/08/12 06:08:47;;;;;;;3.77;3.47;;;20.80;46.40;;;19.54;44.92;98239.00;5028303;28;20459;-69
2022/08/12 06:11:15;;;;;;;3.17;2.90;;;20.00;47.30;;;19.18;46.21;98247.06;5022206;28;20457;-71
2022/08/12 06:13:45;;;;;;;3.30;3.00;;;19.50;48.10;;;18.93;46.27;98240.34;5027993;28;20528;-70
2022/08/12 06:16:15;;;;;;;4.07;3.30;;;19.20;48.40;;;18.97;46.67;98244.19;5043295;28;20453;-70
2022/08/12 06:18:43;;;;;;;4.47;3.43;;;19.00;48.80;;;18.71;46.45;98188.47;5026549;28;20826;-70
2022/08/12 06:21:17;;;;;;;3.57;3.10;;;19.00;48.90;;;18.97;46.28;98232.44;5029160;28;20474;-70
2022/08/12 06:23:45;;;;;;;4.37;3.40;;;19.00;49.00;;;19.01;46.58;98222.63;5042893;28;20474;-69
2022/08/12 06:26:15;;;;;;;3.90;3.17;;;19.00;49.00;;;19.01;46.20;98228.09;5028142;28;20520;-70
2022/08/12 06:28:45;;;;;;;4.10;2.97;;;19.10;48.90;;;19.25;45.93;98225.75;5042886;28;20561;-69
2022/08/12 06:31:15;;;;;;;3.87;3.53;;;19.20;49.00;;;19.37;45.72;98230.16;5023248;28;20459;-71
2022/08/12 06:33:43;;;;;;;5.83;2.90;;;19.30;48.90;;;19.54;45.59;98225.28;5008756;28;20459;-69
2022/08/12 06:36:12;;;;;;;3.27;2.97;;;19.50;49.00;;;19.65;45.29;98236.28;5008763;28;20543;-69
2022/08/12 06:38:41;;;;;;;3.00;2.80;;;19.60;48.80;;;19.75;44.92;98230.81;5008055;28;20450;-71
2022/08/12 06:43:56;;;;;;;2.90;2.60;;;19.70;48.50;;;19.72;44.88;98222.34;5005964;28;20778;-72
2022/08/12 06:46:26;;;;;;;3.27;2.60;;;19.80;48.60;;;19.70;44.62;98208.91;5008733;28;20922;-70
2022/08/12 06:48:57;;;;;;;4.40;3.17;;;19.80;48.50;;;19.95;44.27;98229.25;5023469;28;20831;-71
2022/08/12 06:51:27;;;;;;;3.87;3.30;;;19.90;48.40;;;19.96;44.26;98223.50;5007616;28;20459;-71
2022/08/12 06:53:54;;;;;;;3.40;3.10;;;20.00;48.30;;;20.04;44.16;98224.06;5014594;28;20497;-68
2022/08/12 06:56:22;;;;;;;3.37;2.80;;;20.10;48.40;;;20.34;43.94;98219.69;5027797;28;20497;-69
2022/08/12 06:58:49;;;;;;;3.90;3.03;;;20.20;48.40;;;20.46;43.82;98201.00;5027251;28;20454;-69
2022/08/12 07:01:18;;;;;;;4.33;3.20;;;20.40;48.60;;;20.68;43.40;98213.59;5027233;28;20439;-70
2022/08/12 07:03:45;;;;;;;4.17;2.77;;;20.60;48.30;;;20.74;42.72;98222.66;5025573;28;20855;-70
2022/08/12 07:06:13;;;;;;;2.87;2.67;;;20.70;48.00;;;20.66;42.82;98200.16;5023610;28;20813;-69
2022/08/12 07:08:42;;;;;;;3.60;2.77;;;20.70;48.00;;;20.78;42.98;98213.59;5044457;28;20466;-73
2022/08/12 07:11:12;;;;;;;3.57;3.27;;;20.80;48.00;;;20.63;42.78;98192.47;5028376;28;20569;-70
2022/08/12 07:13:43;;;;;;;3.03;2.63;;;20.80;47.90;;;20.88;42.81;98221.00;5026549;28;20449;-70
2022/08/12 07:16:13;;;;;;;3.10;2.90;;;20.80;47.90;;;20.95;42.49;98224.28;5027191;28;20447;-71
2022/08/12 07:18:43;;;;;;;3.53;3.00;;;20.90;47.90;;;21.20;42.19;98224.47;5042821;28;20466;-72
2022/08/12 07:21:12;;;;;;;2.73;2.53;;;21.10;48.00;;;21.28;41.82;98223.06;5027175;28;20500;-70
2022/08/12 07:23:41;;;;;;;5.10;2.90;;;21.20;47.70;;;21.44;41.79;98230.13;5027282;28;21171;-71
2022/08/12 07:26:15;;;;;;;3.60;3.00;;;21.30;47.80;;;21.64;41.37;98217.41;5026079;28;20455;-70
2022/08/12 07:28:44;;;;;;;3.10;2.70;;;21.40;47.70;;;21.55;41.13;98225.44;5042392;28;20481;-72
2022/08/12 07:31:12;;;;;;;4.40;2.40;;;21.50;47.30;;;21.51;41.17;98222.41;5028376;28;20454;-72
2022/08/12 07:33:42;;;;;;;2.60;2.40;;;21.40;47.30;;;21.78;40.84;98223.97;5027172;28;20575;-69
2022/08/12 07:36:13;;;;;;;3.10;2.80;;;21.60;47.30;;;21.83;40.89;98217.59;5026963;28;20935;-71
2022/08/12 07:38:46;;;;;;;2.83;2.53;;;21.70;47.30;;;22.01;40.51;98215.28;5027319;28;20460;-71
2022/08/12 07:41:17;;;;;;;5.70;2.90;;;21.80;47.20;;;22.30;40.12;98218.06;5040815;28;20464;-72
2022/08/12 07:43:48;;;;;;;2.47;2.27;;;22.00;47.30;;;22.45;40.15;98213.56;5005905;28;20878;-71
2022/08/12 07:46:22;;;;;;;2.47;2.30;;;22.20;47.30;;;22.27;40.10;98226.91;5008288;28;20435;-72
2022/08/12 07:48:53;;;;;;;2.80;2.50;;;22.20;46.90;;;22.17;40.02;98216.81;5022391;28;20446;-69
2022/08/12 07:51:23;;;;;;;3.20;2.90;;;22.10;46.90;;;22.15;40.15;98218.19;5024965;28;20521;-71
2022/08/12 07:53:50;;;;;;;3.33;2.80;;;22.10;46.80;;;22.14;40.19;98211.06;5026836;28;20455;-70
2022/08/12 07:56:19;;;;;;;4.30;3.00;;;22.10;46.80;;;22.02;39.82;98217.75;5025273;28;20483;-70
2022/08/12 07:58:46;;;;;;;2.43;2.23;;;22.00;46.50;;;22.15;40.30;98216.28;5026907;28;20445;-71
2022/08/12 08:01:20;;;;;;;5.60;2.80;;;22.00;46.80;;;22.30;39.82;98207.06;5027860;28;20549;-71
2022/08/12 08:06:40;;;;;;;5.07;3.20;;;22.20;46.40;;;22.32;39.80;98193.84;5037540;28;20450;-70
2022/08/12 08:09:10;;;;;;;3.17;2.30;;;22.30;46.70;;;22.65;38.99;98204.31;5046424;28;20485;-69
2022/08/12 08:14:27;;;;;;;3.77;3.00;;;22.60;46.40;;;22.89;38.60;98212.59;5022020;28;20502;-71
2022/08/12 08:16:56;;;;;;;5.47;2.30;;;22.70;46.40;;;22.82;38.43;98195.59;5012895;28;20483;-70
2022/08/12 08:19:27;;;;;;;2.67;2.20;;;22.70;46.20;;;22.70;38.76;98204.25;5025845;28;21096;-69
2022/08/12 08:21:58;;;;;;;2.93;2.73;;;22.70;46.10;;;22.96;38.62;98205.91;5011567;28;21109;-71
2022/08/12 08:24:29;;;;;;;2.90;2.70;;;22.70;46.30;;;23.10;38.28;98197.78;5009747;28;20576;-70
2022/08/12 08:26:59;;;;;;;2.13;2.03;;;23.00;46.30;;;23.15;37.97;98209.56;5029893;28;20484;-71
2022/08/12 08:29:28;;;;;;;3.47;2.40;;;23.10;46.10;;;23.09;37.94;98204.41;5045466;28;20454;-74
2022/08/12 08:31:58;;;;;;;3.70;2.70;;;23.10;45.80;;;23.15;38.33;98198.53;5030340;28;20452;-69
2022/08/12 08:34:30;;;;;;;4.77;2.73;;;23.10;46.10;;;23.13;37.76;98195.25;5029892;28;20455;-69
2022/08/12 08:36:57;;;;;;;3.40;2.60;;;23.10;45.80;;;23.36;37.69;98203.81;5030799;28;20457;-71
2022/08/12 08:39:26;;;;;;;2.90;2.27;;;23.20;45.90;;;23.17;37.74;98204.56;5030004;28;20525;-70
2022/08/12 08:44:40;;;;;;;3.03;2.30;;;23.00;45.60;;;22.88;38.52;98186.16;5029022;28;20820;-69
2022/08/12 08:47:11;;;;;;;4.10;2.47;;;23.00;45.90;;;22.99;38.41;98188.81;5030365;28;20464;-72
2022/08/12 08:49:40;;;;;;;3.57;3.03;;;23.10;45.90;;;23.07;38.09;98196.41;5016536;28;20449;-70
2022/08/12 08:52:10;;;;;;;4.03;2.43;;;23.10;45.80;;;23.10;37.98;98190.31;5016167;28;20451;-71
2022/08/12 08:54:39;;;;;;;3.50;2.17;;;23.20;45.60;;;23.30;37.81;98191.22;5028552;28;20460;-70
2022/08/12 08:57:08;;;;;;;4.07;2.57;;;23.30;45.60;;;23.42;36.71;98188.03;5030091;28;20477;-71
2022/08/12 08:59:35;;;;;;;4.60;2.10;;;23.40;45.00;;;23.33;36.62;98190.63;5028627;28;20460;-70
2022/08/12 09:02:03;;;;;;;3.43;2.30;;;23.40;44.80;;;23.62;36.81;98190.50;5042088;28;20459;-72
2022/08/12 09:04:30;;;;;;;2.90;2.00;;;23.50;45.20;;;23.63;35.82;98177.53;5048077;28;20529;-70
2022/08/12 09:06:59;;;;;;;2.23;2.13;;;23.70;44.90;;;23.81;36.14;98202.66;5032835;28;20545;-70
2022/08/12 09:09:26;;;;;;;2.80;2.23;;;23.70;44.70;;;23.84;35.55;98202.88;5029335;28;20454;-70
2022/08/12 09:14:42;;;;;;;5.80;2.27;;;23.90;44.60;;;23.96;35.37;98202.44;5028918;28;21095;-69
2022/08/12 09:17:12;;;;;;;5.30;2.67;;;24.00;44.30;;;24.04;35.87;98201.78;5029133;28;20448;-70
2022/08/12 09:19:40;;;;;;;3.67;2.17;;;23.90;44.60;;;24.02;35.12;98192.13;5015892;28;20463;-72
2022/08/12 09:22:09;;;;;;;2.83;2.20;;;24.00;44.20;;;23.88;35.22;98208.59;5010239;28;20498;-72
2022/08/12 09:24:36;;;;;;;2.30;2.10;;;24.00;44.00;;;23.63;35.94;98199.59;5024137;28;20548;-70
2022/08/12 09:27:05;;;;;;;4.10;2.40;;;23.80;44.20;;;23.98;35.14;98194.66;5028368;28;20573;-70
2022/08/12 09:29:32;;;;;;;3.10;1.90;;;24.00;44.20;;;24.09;34.79;98202.81;5027690;28;20453;-72
2022/08/12 09:32:00;;;;;;;2.53;1.73;;;24.10;44.00;;;24.05;34.45;98205.34;5045652;28;21279;-69
2022/08/12 09:34:30;;;;;;;2.17;1.70;;;24.10;43.70;;;23.85;34.66;98204.53;5043949;28;20465;-70
2022/08/12 09:36:58;;;;;;;3.33;2.33;;;24.00;43.40;;;24.00;34.28;98208.16;5028576;28;20548;-71
2022/08/12 09:39:27;;;;;;;2.23;2.03;;;24.00;43.50;;;23.98;34.52;98202.13;5019064;28;20487;-72
2022/08/12 09:47:21;;;;;;;2.70;2.13;;;24.10;43.70;;;24.32;34.40;98178.97;5044869;28;20766;-72
2022/08/12 09:49:52;;;;;;;3.70;2.33;;;24.30;44.00;;;24.48;33.88;98176.75;5028437;28;20473;-69
2022/08/12 09:52:19;;;;;;;2.87;2.33;;;24.50;43.60;;;24.55;32.61;98185.47;5045052;28;20455;-70
2022/08/12 09:54:48;;;;;;;3.10;2.27;;;24.50;42.50;;;24.68;32.03;98188.56;5025531;28;20548;-71
2022/08/12 09:57:18;;;;;;;2.33;2.00;;;24.60;42.00;;;25.01;32.33;98178.25;5030183;28;20453;-69
2022/08/12 09:59:45;;;;;;;4.53;2.40;;;24.80;42.40;;;25.11;32.13;98176.44;5043260;28;20455;-70
2022/08/12 10:02:12;;;;;;;3.90;2.23;;;25.00;42.70;;;24.93;32.43;98173.47;5022854;28;20919;-69
2022/08/12 10:04:47;;;;;;;5.77;2.23;;;24.90;42.50;;;25.10;31.66;98177.56;5006266;28;20482;-69
2022/08/12 10:07:15;;;;;;;2.23;2.03;;;25.00;42.50;;;24.87;31.33;98175.50;5049165;28;20480;-70
2022/08/12 10:09:42;;;;;;;2.00;1.90;;;24.80;41.50;;;25.02;31.20;98174.41;5047984;28;20456;-71
2022/08/12 10:14:56;;;;;;;2.37;1.60;;;25.00;41.70;;;24.81;30.61;98135.31;5028178;28;20494;-70
2022/08/12 10:17:23;;;;;;;3.23;2.17;;;24.90;41.20;;;25.35;30.57;98165.13;5029439;28;20515;-72
2022/08/12 10:19:51;;;;;;;1.60;1.50;;;25.20;41.60;;;25.60;30.17;98161.00;5028373;28;20450;-71
2022/08/12 10:22:19;;;;;;;2.10;1.87;;;25.40;41.00;;;25.77;29.87;98108.91;5012215;28;20942;-71
2022/08/12 10:29:35;;;;;;;2.47;2.23;;;25.70;41.30;;;25.66;29.82;98113.88;5008937;28;20472;-71
2022/08/12 10:30:20;;;;;;;3.63;2.07;;;25.80;40.90;;;25.61;31.65;98156.31;5028000;28;20446;-69
2022/08/12 10:32:57;;;;;;;2.53;1.73;;;25.60;41.90;;;25.53;30.86;98157.03;5028727;28;20462;-72
2022/08/12 10:35:31;;;;;;;2.77;1.90;;;25.70;41.60;;;25.59;30.48;98161.34;5027711;28;20922;-72
2022/08/12 10:38:01;;;;;;;2.43;1.80;;;25.70;41.50;;;25.71;31.17;98155.25;5019153;28;20517;-71
2022/08/12 10:40:31;;;;;;;2.60;1.90;;;25.70;41.60;;;26.09;30.61;98156.84;5041622;28;20458;-72
2022/08/12 10:45:47;;;;;;;5.43;1.90;;;25.90;41.60;;;25.52;30.01;98159.00;5026429;28;20449;-70
2022/08/12 10:48:15;;;;;;;3.00;1.83;;;25.70;40.80;;;25.60;30.70;98160.22;5029273;28;20508;-72
2022/08/12 10:50:43;;;;;;;2.27;2.10;;;25.60;41.40;;;25.87;30.72;98150.19;5023341;28;20975;-69
2022/08/12 10:53:11;;;;;;;1.97;1.77;;;25.70;41.30;;;25.59;30.81;98148.31;5028537;28;20507;-70
2022/08/12 10:55:38;;;;;;;2.10;1.90;;;25.70;41.20;;;25.70;30.38;98137.81;5038816;28;20498;-70
2022/08/12 10:58:06;;;;;;;2.20;1.80;;;25.70;41.30;;;25.58;30.53;98135.63;5024420;28;20989;-70
2022/08/12 11:00:37;;;;;;;6.40;2.10;;;25.70;41.30;;;25.36;31.34;98139.13;5024610;28;20469;-72
2022/08/12 11:03:06;;;;;;;6.93;2.07;;;25.50;41.60;;;25.80;30.89;98138.72;5026122;28;20803;-71
2022/08/12 11:05:33;;;;;;;3.70;1.93;;;25.60;41.70;;;25.42;31.27;98131.53;5031280;28;20495;-70
2022/08/12 11:08:01;;;;;;;2.10;1.90;;;25.60;41.40;;;25.76;30.71;98123.88;5028721;28;20465;-71
2022/08/12 11:10:30;;;;;;;2.23;2.03;;;25.70;41.60;;;25.85;30.60;98133.06;5027410;28;20458;-72
2022/08/12 11:12:58;;;;;;;3.37;1.70;;;25.70;41.60;;;25.32;30.29;98125.13;5018723;28;20460;-71
2022/08/12 11:15:27;;;;;;;1.80;1.70;;;25.60;40.70;;;25.48;30.85;98126.72;5006751;28;20988;-71
2022/08/12 11:17:54;;;;;;;1.87;1.73;;;25.50;41.30;;;25.94;30.73;98111.81;5007758;28;20907;-70
2022/08/12 11:20:21;;;;;;;2.77;2.00;;;25.70;41.80;;;26.24;30.33;98116.91;5007647;28;20459;-73
2022/08/12 11:22:56;;;;;;;2.00;1.80;;;26.00;41.60;;;26.52;30.09;98112.00;5028128;28;20450;-69
2022/08/12 11:25:24;;;;;;;1.90;1.70;;;26.20;41.70;;;26.30;30.17;98104.56;5025556;28;20556;-71
2022/08/12 11:27:51;;;;;;;3.50;1.77;;;26.20;41.30;;;26.45;29.36;98100.56;5043352;28;20687;-71
2022/08/12 11:30:19;;;;;;;4.60;1.40;;;26.20;41.00;;;26.37;28.48;98098.56;5027344;28;20459;-70
2022/08/12 11:32:48;;;;;;;1.30;1.20;;;26.20;40.10;;;26.51;28.31;98099.28;5027763;28;20465;-72
2022/08/12 11:35:16;;;;;;;1.43;1.33;;;26.30;40.00;;;26.75;28.03;98095.28;5026228;28;20493;-72
2022/08/12 11:37:43;;;;;;;4.00;1.63;;;26.40;40.00;;;26.67;28.57;98099.66;5027991;28;20485;-69
2022/08/12 11:40:11;;;;;;;2.00;1.50;;;26.40;40.20;;;26.69;28.96;98096.59;5028048;28;20430;-70
2022/08/12 11:42:38;;;;;;;1.70;1.60;;;26.40;40.50;;;26.40;29.42;98092.38;5042857;28;20477;-73
2022/08/12 11:45:07;;;;;;;2.10;1.70;;;26.40;40.60;;;26.02;30.47;98100.00;5025549;28;20501;-70
2022/08/12 11:47:34;;;;;;;1.90;1.60;;;26.00;41.10;;;26.12;30.01;98092.53;5027381;28;20552;-74
2022/08/12 11:50:02;;;;;;;1.87;1.50;;;25.90;41.00;;;26.26;29.72;98086.97;5027054;28;20512;-70
2022/08/12 11:52:30;;;;;;;3.20;1.60;;;26.00;41.10;;;26.23;28.83;98105.00;5044423;28;20460;-70
2022/08/12 11:54:57;;;;;;;1.40;1.30;;;26.10;40.40;;;25.85;28.58;98095.16;5029429;28;20469;-73
2022/08/12 11:57:24;;;;;;;6.70;5.53;;;25.90;39.50;;;26.05;28.30;98092.19;5031988;28;20528;-73
2022/08/12 11:59:51;;;;;;;3.50;1.63;;;25.90;39.60;;;26.00;27.61;98059.91;5029049;28;20458;-70
2022/08/12 12:02:19;;;;;;;2.50;2.30;;;26.00;39.50;;;26.20;28.29;98090.97;5032306;28;20457;-70
2022/08/12 12:04:46;;;;;;;25.30;14.87;;;25.90;39.60;;;26.47;28.10;98087.22;5029331;28;20860;-72
2022/08/12 12:07:15;;;;;;;8.70;4.63;;;26.10;39.90;;;26.47;28.08;98078.91;5027199;28;20463;-70
2022/08/12 12:09:42;;;;;;;2.17;1.97;;;26.30;39.50;;;26.70;27.67;98084.38;5010806;28;20505;-69
2022/08/12 12:12:10;;;;;;;1.80;1.20;;;26.40;39.50;;;26.81;27.86;98074.63;5011818;28;20458;-70
2022/08/12 12:14:37;;;;;;;2.33;1.43;;;26.60;39.50;;;26.56;27.86;98071.44;5009048;28;20900;-71
2022/08/12 12:17:04;;;;;;;1.30;1.20;;;26.40;39.40;;;26.58;27.57;98069.16;5012223;28;20513;-70
2022/08/12 12:19:31;;;;;;;2.10;1.47;;;26.40;39.30;;;26.51;27.73;98066.06;5010637;28;20951;-72
2022/08/12 12:21:58;;;;;;;2.13;1.27;;;26.40;39.20;;;26.42;28.03;98068.78;5026499;28;20945;-70
2022/08/12 12:24:28;;;;;;;2.27;1.27;;;26.30;39.30;;;26.34;28.14;98072.31;5009304;28;20471;-71